Time;durP1;ratioP1;P1;durP2;ratioP2;P2;SDS_P1;SDS_P2;PMS_P1;PMS_P2;Temp;Humidity;BMP_temperature;BMP_pressure;BME280_temperature;BME280_humidity;BME280_pressure;Samples;Min_cycle;Max_cycle;Signal;HPM_P1;HPM_P2
2021/04/19 00:09:09;;;;;;;4.60;3.92;;;14.10;43.00;;;;;;20671747;28;20039;-50
2021/04/19 00:19:09;;;;;;;6.00;3.90;;;13.90;44.00;;;;;;20671327;28;20490;-50
2021/04/19 00:29:10;;;;;;;8.30;3.78;;;13.70;44.80;;;;;;20670540;28;20038;-49
2021/04/19 00:39:11;;;;;;;7.35;3.55;;;13.40;45.30;;;;;;20669813;28;20042;-51
2021/04/19 00:49:12;;;;;;;4.50;3.28;;;13.20;46.00;;;;;;20651295;28;20053;-50
2021/04/19 00:59:13;;;;;;;5.28;3.58;;;13.30;45.80;;;;;;20668406;28;20498;-50
2021/04/19 01:09:13;;;;;;;4.55;3.42;;;13.30;45.90;;;;;;20668032;28;20057;-50
2021/04/19 01:19:14;;;;;;;5.50;3.25;;;13.40;45.70;;;;;;20667541;28;20030;-51
2021/04/19 01:29:15;;;;;;;4.88;4.20;;;13.20;45.50;;;;;;20664994;28;20063;-50
2021/04/19 01:39:17;;;;;;;7.72;4.53;;;13.20;45.80;;;;;;20667865;28;20026;-50
2021/04/19 01:49:18;;;;;;;6.97;3.80;;;13.20;46.30;;;;;;20682780;28;20042;-49
2021/04/19 01:59:20;;;;;;;4.93;4.18;;;13.20;47.00;;;;;;20682366;28;20047;-50
2021/04/19 02:09:28;;;;;;;7.15;4.40;;;12.90;47.70;;;;;;20681315;28;20034;-50
2021/04/19 02:19:42;;;;;;;5.22;4.10;;;12.90;48.10;;;;;;20680726;28;20084;-48
2021/04/19 02:29:47;;;;;;;8.60;4.43;;;12.80;48.40;;;;;;20679955;28;20027;-50
2021/04/19 02:39:50;;;;;;;5.43;4.57;;;12.70;48.80;;;;;;20679352;28;20025;-51
2021/04/19 02:49:51;;;;;;;9.77;4.78;;;12.70;49.20;;;;;;20678287;28;20483;-50
2021/04/19 02:59:53;;;;;;;4.78;4.00;;;12.30;50.10;;;;;;20677726;28;20050;-49
2021/04/19 03:10:00;;;;;;;5.68;4.45;;;12.50;50.20;;;;;;20676950;28;20042;-50
2021/04/19 03:20:14;;;;;;;5.93;4.45;;;12.40;50.60;;;;;;20676038;28;20018;-50
2021/04/19 03:30:16;;;;;;;7.70;4.50;;;12.50;50.50;;;;;;20675542;28;20487;-48
2021/04/19 03:40:23;;;;;;;6.20;5.15;;;12.40;50.60;;;;;;20657198;28;20383;-49
2021/04/19 03:50:25;;;;;;;7.22;5.22;;;12.40;50.40;;;;;;20673439;28;20495;-49
2021/04/19 04:00:27;;;;;;;6.07;4.95;;;12.30;50.40;;;;;;20712994;28;20049;-50
2021/04/19 04:10:28;;;;;;;7.22;4.40;;;12.30;50.60;;;;;;20752569;28;20488;-50
2021/04/19 04:20:29;;;;;;;5.82;4.97;;;12.40;50.20;;;;;;20734886;28;20045;-48
2021/04/19 04:30:31;;;;;;;6.38;4.22;;;12.30;49.80;;;;;;20733689;28;20053;-50
2021/04/19 04:40:33;;;;;;;6.40;4.57;;;12.20;50.20;;;;;;20751604;28;20033;-49
2021/04/19 04:50:44;;;;;;;6.05;4.05;;;12.00;50.60;;;;;;20749838;28;20125;-49
2021/04/19 05:00:45;;;;;;;7.75;4.80;;;12.00;50.40;;;;;;20749338;28;20137;-50
2021/04/19 05:10:47;;;;;;;7.35;4.50;;;11.90;50.20;;;;;;20748643;28;20074;-50
2021/04/19 05:20:48;;;;;;;7.97;5.05;;;11.90;50.60;;;;;;20747725;28;20030;-50
2021/04/19 05:30:50;;;;;;;7.75;4.90;;;12.00;50.10;;;;;;20747873;28;20042;-50
2021/04/19 05:40:51;;;;;;;9.43;5.05;;;12.00;50.00;;;;;;20747754;28;20065;-50
2021/04/19 05:50:55;;;;;;;7.80;5.00;;;11.90;50.70;;;;;;20746956;28;20034;-50
2021/04/19 06:01:04;;;;;;;6.05;4.47;;;12.00;50.80;;;;;;20729570;28;20088;-50
2021/04/19 06:11:44;;;;;;;7.80;5.32;;;12.00;51.10;;;;;;20745927;28;20385;-50
2021/04/19 06:21:46;;;;;;;5.95;4.35;;;12.20;50.80;;;;;;20417047;29;20028;-49
2021/04/19 06:31:49;;;;;;;6.40;5.55;;;12.00;51.20;;;;;;20427070;28;20083;-50
2021/04/19 06:41:50;;;;;;;8.23;5.72;;;12.20;51.30;;;;;;20430395;29;20047;-50
2021/04/19 06:51:53;;;;;;;9.02;5.85;;;12.40;51.10;;;;;;20499357;28;20080;-48
2021/04/19 07:01:55;;;;;;;10.65;6.60;;;12.30;51.20;;;;;;20758449;28;20057;-51
2021/04/19 07:12:08;;;;;;;12.45;6.43;;;12.30;51.20;;;;;;20757713;28;20034;-50
2021/04/19 07:22:17;;;;;;;11.98;7.07;;;12.70;50.50;;;;;;20756999;28;20029;-49
2021/04/19 07:32:32;;;;;;;10.30;7.25;;;12.90;49.90;;;;;;20756233;28;20046;-50
2021/04/19 07:42:37;;;;;;;10.18;7.15;;;13.20;47.80;;;;;;20752319;28;20053;-49
2021/04/19 07:52:50;;;;;;;;;;;13.40;46.00;;;;;;20754432;28;20073;-50
2021/04/19 08:02:57;;;;;;;6.47;5.10;;;13.70;44.80;;;;;;20753823;28;19923;-49
2021/04/19 08:13:03;;;;;;;8.18;5.93;;;14.00;42.70;;;;;;20752954;28;20057;-49
2021/04/19 08:23:07;;;;;;;9.07;6.00;;;14.70;41.30;;;;;;20752037;28;20034;-47
2021/04/19 08:33:09;;;;;;;14.73;6.82;;;15.50;41.80;;;;;;20750452;28;20125;-49
2021/04/19 08:43:16;;;;;;;8.52;6.47;;;16.20;38.80;;;;;;20768569;28;20030;-50
2021/04/19 08:53:18;;;;;;;10.32;7.60;;;16.10;38.50;;;;;;20771308;28;20050;-48
2021/04/19 09:03:21;;;;;;;12.00;7.07;;;16.50;38.50;;;;;;20743782;28;20034;-48
2021/04/19 09:13:30;;;;;;;12.75;7.47;;;16.90;38.60;;;;;;20756171;28;20129;-50
2021/04/19 09:23:32;;;;;;;12.90;7.75;;;17.20;37.30;;;;;;20759136;28;20026;-50
2021/04/19 09:33:32;;;;;;;9.85;6.60;;;17.20;36.00;;;;;;20747104;28;20121;-49
2021/04/19 09:43:49;;;;;;;13.15;6.75;;;17.40;34.90;;;;;;20767575;28;20053;-49
2021/04/19 09:53:59;;;;;;;9.45;7.18;;;17.30;34.80;;;;;;20767846;28;20050;-49
2021/04/19 10:04:00;;;;;;;10.55;6.88;;;17.50;35.30;;;;;;20752857;28;20077;-48
2021/04/19 10:14:09;;;;;;;13.95;7.85;;;17.70;35.60;;;;;;20765507;28;20026;-48
2021/04/19 10:24:15;;;;;;;14.77;8.15;;;18.00;36.40;;;;;;20748162;28;20542;-47
2021/04/19 10:34:16;;;;;;;13.10;9.52;;;18.30;36.30;;;;;;20758381;28;20038;-54
2021/04/19 10:44:25;;;;;;;13.57;8.95;;;18.40;35.40;;;;;;20759215;28;20029;-48
2021/04/19 10:54:28;;;;;;;12.57;8.82;;;18.70;35.60;;;;;;20758327;28;20076;-47
2021/04/19 11:04:29;;;;;;;16.67;10.83;;;18.90;35.40;;;;;;20755788;28;20052;-48
2021/04/19 11:14:36;;;;;;;13.80;9.80;;;19.10;35.60;;;;;;20756581;28;20099;-46
2021/04/19 11:24:38;;;;;;;15.30;10.48;;;19.30;35.30;;;;;;20756065;28;20041;-48
2021/04/19 11:34:40;;;;;;;15.90;9.45;;;19.60;35.10;;;;;;20769194;28;20029;-48
2021/04/19 11:44:49;;;;;;;15.45;8.00;;;20.10;34.00;;;;;;20791126;28;20053;-51
2021/04/19 11:54:49;;;;;;;8.00;6.85;;;20.30;34.40;;;;;;20745360;28;20096;-50
2021/04/19 12:04:50;;;;;;;7.20;4.68;;;20.60;33.30;;;;;;20752928;28;20042;-50
2021/04/19 12:14:52;;;;;;;6.70;4.55;;;20.80;32.50;;;;;;20753245;28;20076;-50
2021/04/19 12:24:52;;;;;;;8.18;3.15;;;20.70;32.80;;;;;;20751796;28;20382;-50
2021/04/19 12:34:53;;;;;;;4.88;2.90;;;21.00;32.10;;;;;;20751405;28;20034;-50
2021/04/19 12:44:54;;;;;;;4.18;2.35;;;21.10;31.80;;;;;;20750961;28;20029;-50
2021/04/19 12:54:54;;;;;;;3.75;2.53;;;21.30;31.60;;;;;;20748791;28;20402;-49
2021/04/19 13:04:55;;;;;;;5.70;3.17;;;21.30;31.60;;;;;;20748924;28;20046;-48
2021/04/19 13:14:56;;;;;;;4.70;2.33;;;21.40;31.40;;;;;;20749397;28;20038;-51
2021/04/19 13:24:57;;;;;;;5.38;2.10;;;21.60;30.70;;;;;;20748335;28;20025;-50
2021/04/19 13:34:58;;;;;;;4.35;2.40;;;21.80;30.50;;;;;;20745835;28;20453;-50
2021/04/19 13:44:58;;;;;;;3.05;1.70;;;21.60;30.40;;;;;;20747891;28;20033;-50
2021/04/19 13:54:59;;;;;;;6.05;4.78;;;21.70;30.10;;;;;;20746631;28;20038;-50
2021/04/19 14:05:00;;;;;;;4.15;2.25;;;22.00;29.90;;;;;;20727681;28;20060;-50
2021/04/19 14:15:01;;;;;;;12.35;9.77;;;22.10;29.40;;;;;;20746336;28;20084;-51
2021/04/19 14:25:04;;;;;;;5.55;2.30;;;22.20;29.40;;;;;;20745972;28;20022;-49
2021/04/19 14:35:05;;;;;;;3.83;2.33;;;22.00;30.10;;;;;;20745962;28;20512;-50
2021/04/19 14:45:08;;;;;;;7.50;3.70;;;21.70;31.10;;;;;;20745620;28;20026;-50
2021/04/19 14:55:10;;;;;;;4.70;2.60;;;21.40;33.70;;;;;;20759522;28;20035;-51
2021/04/19 15:05:11;;;;;;;7.87;2.10;;;21.20;34.40;;;;;;20759269;28;20379;-49
2021/04/19 15:15:12;;;;;;;2.47;1.25;;;21.20;33.80;;;;;;20756576;28;20045;-49
2021/04/19 15:25:14;;;;;;;3.35;1.40;;;21.20;33.00;;;;;;20756691;28;20022;-50
2021/04/19 15:35:15;;;;;;;4.20;1.70;;;21.20;32.60;;;;;;20755778;28;20037;-50
2021/04/19 15:45:16;;;;;;;3.58;1.63;;;21.30;32.70;;;;;;20752379;28;20043;-48
2021/04/19 15:55:18;;;;;;;5.85;1.30;;;21.30;32.50;;;;;;20753347;28;20038;-47
2021/04/19 16:05:19;;;;;;;5.78;1.85;;;21.20;32.30;;;;;;20750615;28;20040;-49
2021/04/19 16:15:20;;;;;;;8.88;1.73;;;20.90;33.40;;;;;;20749771;28;20128;-48
2021/04/19 16:25:21;;;;;;;2.90;1.55;;;20.90;34.10;;;;;;20750743;28;20025;-49
2021/04/19 16:35:22;;;;;;;3.00;1.77;;;20.40;35.70;;;;;;20748768;28;20029;-47
2021/04/19 16:45:23;;;;;;;4.47;2.33;;;20.40;36.60;;;;;;20749680;28;20073;-50
2021/04/19 16:55:24;;;;;;;3.88;2.30;;;20.00;37.70;;;;;;20748509;28;20061;-51
2021/04/19 17:05:24;;;;;;;3.60;1.95;;;19.90;38.50;;;;;;20747442;28;20052;-50
2021/04/19 17:15:25;;;;;;;4.90;2.17;;;19.70;39.50;;;;;;20748955;28;20045;-50
2021/04/19 17:25:27;;;;;;;4.70;2.13;;;19.70;39.40;;;;;;20747779;28;20120;-51
2021/04/19 17:35:28;;;;;;;5.07;2.63;;;19.40;40.10;;;;;;20746423;28;20030;-50
2021/04/19 17:45:28;;;;;;;6.03;2.20;;;19.40;40.90;;;;;;20746975;28;20057;-50
2021/04/19 17:55:30;;;;;;;5.78;2.33;;;19.20;42.50;;;;;;20746295;28;20057;-48
2021/04/19 18:05:31;;;;;;;5.10;2.67;;;18.90;43.10;;;;;;20746165;28;20037;-49
2021/04/19 18:15:33;;;;;;;4.88;2.50;;;19.00;42.80;;;;;;20745935;28;20033;-48
2021/04/19 18:25:34;;;;;;;6.57;2.50;;;19.00;43.50;;;;;;20753396;28;20024;-49
2021/04/19 18:35:35;;;;;;;5.50;2.28;;;18.70;44.70;;;;;;20760371;28;20061;-50
2021/04/19 18:45:39;;;;;;;4.75;2.17;;;18.50;45.80;;;;;;20759826;28;20109;-47
2021/04/19 18:55:39;;;;;;;;;;;18.50;46.30;;;;;;20757422;28;20061;-48
2021/04/19 19:05:43;;;;;;;7.72;2.75;;;18.40;46.20;;;;;;20757865;28;19906;-47
2021/04/19 19:15:43;;;;;;;3.97;2.30;;;18.20;47.00;;;;;;20757815;28;20133;-49
2021/04/19 19:25:44;;;;;;;5.03;2.78;;;17.90;47.20;;;;;;20756749;28;20061;-49
2021/04/19 19:35:45;;;;;;;7.85;4.60;;;17.80;47.70;;;;;;20737345;28;20482;-48
2021/04/19 19:45:46;;;;;;;5.38;2.58;;;17.70;47.60;;;;;;20755399;28;20033;-50
2021/04/19 19:55:47;;;;;;;4.65;2.97;;;17.60;47.80;;;;;;20754289;28;20045;-48
2021/04/19 20:05:49;;;;;;;4.32;2.50;;;17.50;49.10;;;;;;20754072;28;20113;-50
2021/04/19 20:15:50;;;;;;;4.78;3.10;;;17.40;50.40;;;;;;20752869;28;20046;-49
2021/04/19 20:25:51;;;;;;;4.30;2.80;;;17.40;52.40;;;;;;20752138;28;20022;-49
2021/04/19 20:35:52;;;;;;;4.10;2.97;;;17.20;51.60;;;;;;20750770;28;20525;-49
2021/04/19 20:45:53;;;;;;;2.97;2.20;;;17.20;50.50;;;;;;20750216;28;20032;-48
2021/04/19 20:55:53;;;;;;;4.72;2.50;;;17.20;49.50;;;;;;20749766;28;20057;-50
2021/04/19 21:05:55;;;;;;;4.63;2.25;;;17.10;49.00;;;;;;20749540;28;20028;-50
2021/04/19 21:15:55;;;;;;;6.70;2.90;;;17.10;48.80;;;;;;20748823;28;20120;-49
2021/04/19 21:25:57;;;;;;;4.03;2.78;;;17.00;48.20;;;;;;20748554;28;20060;-49
2021/04/19 21:35:57;;;;;;;4.55;2.42;;;17.00;47.90;;;;;;20730455;28;20026;-49
2021/04/19 21:45:59;;;;;;;4.90;2.60;;;17.00;48.00;;;;;;20747364;28;20101;-51
2021/04/19 21:56:00;;;;;;;3.17;2.58;;;17.00;48.40;;;;;;20748061;28;20053;-49
2021/04/19 22:06:01;;;;;;;4.15;2.55;;;16.90;49.20;;;;;;20763696;28;20053;-50
2021/04/19 22:16:02;;;;;;;4.07;2.60;;;16.90;50.00;;;;;;20762744;28;20508;-49
2021/04/19 22:26:03;;;;;;;3.65;2.70;;;16.80;50.50;;;;;;20761855;28;20037;-50
2021/04/19 22:36:05;;;;;;;3.22;2.53;;;16.80;50.50;;;;;;20742664;28;20050;-50
2021/04/19 22:46:05;;;;;;;3.95;3.00;;;16.70;50.50;;;;;;20759472;28;20482;-50
2021/04/19 22:56:06;;;;;;;4.28;2.88;;;16.60;50.80;;;;;;20759379;28;20046;-50
2021/04/19 23:06:08;;;;;;;3.28;2.50;;;16.60;51.20;;;;;;20759066;28;20057;-49
2021/04/19 23:16:08;;;;;;;4.32;2.70;;;16.40;51.60;;;;;;20757865;28;20046;-50
2021/04/19 23:26:10;;;;;;;7.03;2.92;;;16.30;51.70;;;;;;20757367;28;20053;-49
2021/04/19 23:36:11;;;;;;;7.07;3.55;;;16.20;52.10;;;;;;20755552;28;20040;-49
2021/04/19 23:46:11;;;;;;;5.43;3.70;;;16.00;52.50;;;;;;20755866;28;20080;-48
2021/04/19 23:56:13;;;;;;;7.10;3.95;;;15.90;52.90;;;;;;20755173;28;20042;-49
